createdAt,value
2023-05-08T00:01:27.042Z,33.6
2023-05-08T00:03:28.711Z,31.3
2023-05-08T00:05:29.905Z,29.9
2023-05-08T00:07:31.336Z,29.4
2023-05-08T00:11:34.154Z,26.4
2023-05-08T00:13:35.593Z,27.2
2023-05-08T00:17:41.814Z,30
2023-05-08T00:31:55.031Z,30
2023-05-08T00:33:56.421Z,32.2
2023-05-08T00:34:58.775Z,32.5
2023-05-08T00:37:00.203Z,29.7
2023-05-08T00:39:01.644Z,31.4
2023-05-08T00:41:03.106Z,31.1
2023-05-08T00:43:07.783Z,32.6
2023-05-08T00:45:09.199Z,31.5
2023-05-08T00:47:10.592Z,30.7
2023-05-08T00:49:12.001Z,30.9
2023-05-08T00:51:13.423Z,27.5
2023-05-08T00:55:16.270Z,25.5
2023-05-08T00:57:21.025Z,32.3
2023-05-08T00:59:22.453Z,27.9
2023-05-08T01:07:28.146Z,26.9
2023-05-08T01:11:34.296Z,28.7
2023-05-08T01:15:37.115Z,29.2
2023-05-08T01:17:38.619Z,28.2
2023-05-08T01:19:40.000Z,25.5
2023-05-08T01:23:42.888Z,27.1
2023-05-08T01:25:47.573Z,31.9
2023-05-08T01:27:48.976Z,28.6
2023-05-08T01:30:52.807Z,29.3
2023-05-08T01:32:54.267Z,30.8
2023-05-08T01:34:55.650Z,26.6
2023-05-08T01:36:57.047Z,29.5
2023-05-08T01:39:01.788Z,32.8
2023-05-08T01:41:03.199Z,28.7
2023-05-08T01:43:04.617Z,27.3
2023-05-08T01:45:06.048Z,31.2
2023-05-08T01:47:07.589Z,30.3
2023-05-08T01:49:08.958Z,29.7
2023-05-08T01:51:10.365Z,25.2
2023-05-08T01:53:15.125Z,31.3
2023-05-08T01:57:18.015Z,25.7
2023-05-08T01:59:19.391Z,26.7
2023-05-08T02:01:20.954Z,27.7
2023-05-08T02:03:22.368Z,27.1
2023-05-08T02:05:23.710Z,25.6
2023-05-08T02:07:28.446Z,33.4
2023-05-08T02:09:29.852Z,29.4
2023-05-08T02:11:31.272Z,32.1
2023-05-08T02:13:32.758Z,29
2023-05-08T02:15:34.162Z,27
2023-05-08T02:17:35.589Z,30.9
2023-05-08T02:19:37.018Z,25.9
2023-05-08T02:21:41.707Z,31.4
2023-05-08T02:23:43.132Z,27.1
2023-05-08T02:25:44.593Z,22.8
2023-05-08T02:26:46.957Z,28.4
2023-05-08T02:53:12.186Z,28.5
2023-05-08T02:55:13.616Z,31.3
2023-05-08T02:57:15.046Z,28
2023-05-08T02:59:16.465Z,32.4
2023-05-08T03:07:25.486Z,34.1
2023-05-08T03:09:26.946Z,36.5
2023-05-08T03:11:28.347Z,37.7
2023-05-08T03:17:35.959Z,40.1
2023-05-08T03:19:37.408Z,39.1
2023-05-08T03:21:38.828Z,34.6
2023-05-08T03:34:19.693Z,34.8
2023-05-08T03:46:31.593Z,35.8
2023-05-08T03:52:35.856Z,33
2023-05-08T03:56:38.705Z,25
2023-05-08T04:00:44.892Z,29
2023-05-08T04:02:46.333Z,27.1
2023-05-08T04:04:47.764Z,27.7
2023-05-08T04:06:50.779Z,29.2
2023-05-08T04:08:50.615Z,26.4
2023-05-08T04:10:52.055Z,28.1
2023-05-08T04:12:56.854Z,29.5
2023-05-08T04:14:58.196Z,28.2
2023-05-08T04:24:06.344Z,25.7
2023-05-08T04:38:19.649Z,28.3
2023-05-08T04:40:24.357Z,33.7
2023-05-08T04:42:25.799Z,27.9
2023-05-08T04:46:28.661Z,24.8
2023-05-08T04:56:39.083Z,31.5
2023-05-08T04:58:40.471Z,32.4
2023-05-08T05:02:43.393Z,28.1
2023-05-08T05:04:44.762Z,26.5
2023-05-08T05:06:46.174Z,30.9
2023-05-08T05:08:50.876Z,31.7
2023-05-08T05:10:52.327Z,30.9
2023-05-08T05:12:53.816Z,36.6
2023-05-08T05:13:56.135Z,34.4
2023-05-08T05:30:11.049Z,35.1
2023-05-08T05:32:12.257Z,32.9
2023-05-08T05:34:13.686Z,33.5
2023-05-08T05:36:18.429Z,37.4
2023-05-08T05:38:19.835Z,36.6
2023-05-08T05:40:21.252Z,34.9
2023-05-08T05:42:22.672Z,34.1
2023-05-08T05:44:24.094Z,32.4
2023-05-08T05:46:25.570Z,33.2
2023-05-08T05:48:26.954Z,34.7
2023-05-08T05:50:31.714Z,33.2
2023-05-08T05:52:33.089Z,30.8
2023-05-08T05:54:34.546Z,32.6
2023-05-08T05:56:35.981Z,35.1
2023-05-08T06:00:38.804Z,31.7
2023-05-08T06:04:44.937Z,33.5
2023-05-08T06:06:46.370Z,32.2
2023-05-08T06:08:47.781Z,32.5
2023-05-08T06:09:50.113Z,30.5
2023-05-08T06:15:54.406Z,28.5
2023-05-08T06:17:59.128Z,30
2023-05-08T06:20:00.561Z,28.4
2023-05-08T06:24:03.344Z,28.9
2023-05-08T06:34:13.699Z,23.6
2023-05-08T06:38:16.535Z,23.8
2023-05-08T06:42:19.302Z,17.2
2023-05-08T06:46:25.473Z,16
2023-05-08T06:50:28.220Z,18
2023-05-08T06:52:29.605Z,15.3
2023-05-08T06:54:31.003Z,16.1
2023-05-08T06:56:32.400Z,18.7
2023-05-08T06:58:33.817Z,17.2
2023-05-08T07:02:39.943Z,17
2023-05-08T07:04:41.293Z,15.7
2023-05-08T07:23:23.795Z,18.6
2023-05-08T07:25:25.117Z,17.1
2023-05-08T07:27:29.852Z,16.9
2023-05-08T07:29:31.119Z,17.5
2023-05-08T07:31:32.521Z,18
2023-05-08T07:33:33.765Z,18.3
2023-05-08T07:35:35.040Z,18
2023-05-08T07:37:36.306Z,20.9
2023-05-08T07:39:37.609Z,20.5
2023-05-08T07:41:42.310Z,20.8
2023-05-08T07:43:43.560Z,19.4
2023-05-08T07:45:44.950Z,20.1
2023-05-08T07:51:48.857Z,21.3
2023-05-08T07:53:50.221Z,19.8
2023-05-08T07:55:54.833Z,21.4
2023-05-08T07:57:56.185Z,20.7
2023-05-08T07:59:57.499Z,20.1
2023-05-08T08:00:59.825Z,22.9
2023-05-08T08:09:08.413Z,20.4
2023-05-08T08:21:16.183Z,22.1
2023-05-08T08:23:20.822Z,21.4
2023-05-08T08:25:22.082Z,22.3
2023-05-08T08:27:23.373Z,22.4
2023-05-08T08:29:24.788Z,21.4
2023-05-08T08:31:25.958Z,21.3
2023-05-08T08:33:27.145Z,23
2023-05-08T08:37:32.840Z,24.3
2023-05-08T08:39:34.084Z,21.9
2023-05-08T08:41:35.362Z,20.6
2023-05-08T08:56:50.049Z,26.9
2023-05-08T08:58:51.356Z,24.9
2023-05-08T09:00:52.720Z,24.6
2023-05-08T09:02:54.223Z,23.7
2023-05-08T09:06:59.789Z,25.8
2023-05-08T09:09:01.136Z,26
2023-05-08T09:13:03.682Z,25.4
2023-05-08T09:15:05.039Z,24
2023-05-08T09:17:06.396Z,24.9
2023-05-08T09:19:12.734Z,26.6
2023-05-08T09:21:13.670Z,25.7
2023-05-08T09:23:14.940Z,27.7
2023-05-08T09:25:16.400Z,25
2023-05-08T09:27:17.445Z,27
2023-05-08T09:29:18.756Z,25.5
2023-05-08T09:31:20.143Z,29.6
2023-05-08T09:33:24.617Z,26.7
2023-05-08T09:35:25.856Z,25.5
2023-05-08T09:39:28.328Z,26.9
2023-05-08T09:43:30.841Z,26.5
2023-05-08T09:52:41.370Z,26.7
2023-05-08T09:54:42.700Z,24.2
2023-05-08T09:56:44.741Z,26.2
2023-05-08T09:58:45.972Z,25.1
2023-05-08T10:00:50.480Z,26.6
2023-05-08T10:02:51.706Z,22.5
2023-05-08T10:04:52.916Z,22.9
2023-05-08T10:06:56.468Z,24.4
2023-05-08T10:08:55.252Z,22.6
2023-05-08T10:10:56.562Z,23.5
2023-05-08T10:12:57.793Z,27.4
2023-05-08T10:15:02.184Z,24.8
2023-05-08T10:17:03.416Z,23.7
2023-05-08T10:19:04.536Z,26.9
2023-05-08T10:23:06.958Z,27
2023-05-08T10:25:08.141Z,28.6
2023-05-08T10:27:09.334Z,27.1
2023-05-08T10:31:14.987Z,27.6
2023-05-08T10:33:16.167Z,26.1
2023-05-08T10:35:17.388Z,24.1
2023-05-08T10:37:18.614Z,25.3
2023-05-08T10:39:19.909Z,28.9
2023-05-08T10:41:21.096Z,27.5
2023-05-08T10:43:25.595Z,24.3
2023-05-08T10:45:26.955Z,28.8
2023-05-08T10:47:28.108Z,23.6
2023-05-08T11:04:08.873Z,18.6
2023-05-08T11:18:21.160Z,27.6
2023-05-08T11:32:33.561Z,29.8
2023-05-08T11:34:34.881Z,26.3
2023-05-08T11:36:36.283Z,28.5
2023-05-08T11:42:43.686Z,27
2023-05-08T11:43:45.915Z,29.1
2023-05-08T11:45:47.237Z,29.1
2023-05-08T11:59:59.932Z,37.3
2023-05-08T12:02:08.719Z,31.9
2023-05-08T12:04:02.862Z,34.1
2023-05-08T12:06:07.225Z,33.6
2023-05-08T12:10:09.995Z,30.4
2023-05-08T12:14:12.640Z,30.2
2023-05-08T12:18:15.200Z,29.6
2023-05-08T12:20:19.976Z,28.7
2023-05-08T12:22:20.917Z,33.2
2023-05-08T12:24:22.223Z,29.7
2023-05-08T12:26:23.468Z,30.4
2023-05-08T12:30:26.100Z,28.1
2023-05-08T12:32:29.084Z,25.4
2023-05-08T12:36:33.237Z,28.1
2023-05-08T12:39:36.782Z,30
2023-05-08T12:41:38.023Z,30.1
2023-05-08T12:43:39.291Z,28.9
2023-05-08T12:47:45.077Z,28.9
2023-05-08T12:51:47.664Z,30
2023-05-08T12:53:48.923Z,26.4
2023-05-08T12:55:50.189Z,31.6
2023-05-08T12:57:51.525Z,31.3
2023-05-08T12:59:53.153Z,34
2023-05-08T13:01:57.505Z,30.7
2023-05-08T13:04:02.196Z,28
2023-05-08T13:05:59.908Z,32.1
2023-05-08T13:08:01.160Z,26.6
2023-05-08T13:10:02.483Z,30.4
2023-05-08T13:12:03.700Z,31.7
2023-05-08T13:14:04.931Z,26.9
2023-05-08T13:16:09.509Z,27.2
2023-05-08T13:20:11.962Z,28.1
2023-05-08T13:22:13.035Z,27.8
2023-05-08T13:24:14.266Z,29.1
2023-05-08T13:26:15.486Z,28.7
2023-05-08T13:28:16.692Z,30.9
2023-05-08T13:30:21.120Z,30
2023-05-08T13:32:22.393Z,31
2023-05-08T13:35:25.888Z,29.6
2023-05-08T13:43:33.972Z,33.1
2023-05-08T13:47:36.459Z,33
2023-05-08T13:49:37.626Z,29.1
2023-05-08T13:51:38.867Z,31.8
2023-05-08T13:53:40.077Z,31
2023-05-08T13:55:41.270Z,29.5
2023-05-08T13:57:45.575Z,29
2023-05-08T14:05:50.326Z,27.6
2023-05-08T14:07:51.554Z,29.6
2023-05-08T14:09:52.715Z,30.7
2023-05-08T14:11:57.179Z,33.1
2023-05-08T14:13:58.354Z,27.5
2023-05-08T14:15:59.576Z,30.5
2023-05-08T14:20:01.942Z,27.8
2023-05-08T14:22:03.139Z,26.6
2023-05-08T14:24:04.368Z,27.8
2023-05-08T14:26:08.800Z,30
2023-05-08T14:28:10.009Z,29.6
2023-05-08T14:30:11.568Z,29.9
2023-05-08T14:36:34.430Z,31
2023-05-08T14:38:38.831Z,27.4
2023-05-08T14:40:40.102Z,27.8
2023-05-08T14:42:41.341Z,30.8
2023-05-08T14:52:50.884Z,32
2023-05-08T14:56:53.464Z,32.4
2023-05-08T14:58:54.797Z,28.8
2023-05-08T15:02:57.456Z,31.7
2023-05-08T15:04:58.625Z,32.2
2023-05-08T15:09:06.111Z,32.8
2023-05-08T15:11:07.351Z,28.9
2023-05-08T15:15:09.856Z,33.7
2023-05-08T15:19:12.443Z,28
2023-05-08T15:21:16.937Z,30.1
2023-05-08T15:28:22.948Z,29.8
2023-05-08T15:30:24.188Z,27.8
2023-05-08T15:32:25.438Z,26.8
2023-05-08T15:34:32.799Z,27.5
2023-05-08T15:36:31.100Z,26.4
2023-05-08T15:38:32.264Z,28.8
2023-05-08T15:40:33.497Z,26.8
2023-05-08T15:42:34.698Z,23.2
2023-05-08T15:44:52.702Z,23.9
2023-05-08T15:46:37.052Z,24.7
2023-05-08T15:56:46.221Z,26.7
2023-05-08T16:04:54.388Z,28.9
2023-05-08T16:12:59.380Z,26.7
2023-05-08T16:15:00.539Z,26.7
2023-05-08T16:19:06.370Z,24.7
2023-05-08T16:21:07.571Z,30.6
2023-05-08T16:22:09.813Z,29.5
2023-05-08T16:24:11.129Z,27.5
2023-05-08T16:26:12.448Z,27.8
2023-05-08T16:28:13.754Z,27.9
2023-05-08T16:30:18.227Z,25.5
2023-05-08T16:36:21.842Z,26.6
2023-05-08T16:40:24.274Z,27.1
2023-05-08T16:42:25.534Z,25.7
2023-05-08T16:44:29.962Z,28.8
2023-05-08T16:48:32.415Z,26.9
2023-05-08T16:50:33.752Z,28
2023-05-08T16:54:36.179Z,25.8
2023-05-08T16:56:37.513Z,27.7
2023-05-08T17:02:44.698Z,19.5
2023-05-08T17:08:48.536Z,20.3
2023-05-08T17:10:49.744Z,19.6
2023-05-08T17:12:54.432Z,20
2023-05-08T17:14:55.487Z,22.6
2023-05-08T17:16:56.931Z,19.1
2023-05-08T17:17:59.080Z,20.1
2023-05-08T17:20:00.365Z,20.8
2023-05-08T17:26:07.522Z,20.5
2023-05-08T17:28:08.794Z,22.3
2023-05-08T17:30:10.093Z,20.6
2023-05-08T17:32:11.573Z,24.8
2023-05-08T17:34:12.780Z,21.9
2023-05-08T17:36:13.988Z,24.8
2023-05-08T17:40:19.679Z,24.5
2023-05-08T17:42:20.950Z,21
2023-05-08T17:44:22.177Z,24.2
2023-05-08T17:46:23.590Z,23
2023-05-08T17:48:24.682Z,22.3
2023-05-08T17:50:26.870Z,23.2
2023-05-08T17:52:28.210Z,23.4
2023-05-08T17:54:32.912Z,21.2
2023-05-08T17:56:34.146Z,21.1
2023-05-08T18:08:45.135Z,25.7
2023-05-08T18:12:47.823Z,25.6
2023-05-08T18:15:04.465Z,24.8
2023-05-08T18:17:05.739Z,24.6
2023-05-08T18:19:07.022Z,10.5
2023-05-08T18:21:11.612Z,7.4
2023-05-08T18:23:12.989Z,15.3
2023-05-08T18:25:14.318Z,13.7
2023-05-08T18:27:15.610Z,8.2
2023-05-08T18:29:16.920Z,2.8
2023-05-08T18:31:18.356Z,4.1
2023-05-08T18:33:19.693Z,4.7
2023-05-08T18:35:24.361Z,8.5
2023-05-08T18:37:25.800Z,10.9
2023-05-08T18:39:27.183Z,13.1
2023-05-08T18:43:29.966Z,17.1
2023-05-08T18:51:38.928Z,18.2
2023-05-08T18:57:43.140Z,15.9
2023-05-08T19:01:45.987Z,17
2023-05-08T19:05:52.129Z,16.7
2023-05-08T19:08:55.901Z,22
2023-05-08T19:10:57.344Z,20.1
2023-05-08T19:12:58.808Z,20.2
2023-05-08T19:15:00.195Z,18
2023-05-08T19:17:04.955Z,24.7
2023-05-08T19:19:06.378Z,22
2023-05-08T19:21:07.786Z,26.3
2023-05-08T19:23:09.210Z,26.9
2023-05-08T19:25:10.620Z,25.2
2023-05-08T19:27:12.080Z,27.6
2023-05-08T19:29:13.501Z,26
2023-05-08T19:33:19.627Z,28.7
2023-05-08T19:35:21.132Z,27.1
2023-05-08T19:39:23.940Z,31.6
2023-05-08T19:49:34.349Z,32
2023-05-08T19:51:35.819Z,29.5
2023-05-08T19:57:40.091Z,26.8
2023-05-08T19:59:44.815Z,33
2023-05-08T20:01:46.273Z,39.9
2023-05-08T20:03:47.764Z,32.4
2023-05-08T20:06:51.462Z,33.9
2023-05-08T20:10:54.346Z,32.3
2023-05-08T20:12:59.091Z,30.8
2023-05-08T20:15:00.501Z,32.2
2023-05-08T20:19:03.348Z,32.1
2023-05-08T20:29:13.758Z,31.8
2023-05-08T20:31:15.219Z,34.2
2023-05-08T20:35:18.069Z,32.7
2023-05-08T20:37:19.449Z,35.1
2023-05-08T20:39:20.861Z,29.9
2023-05-08T20:41:25.576Z,36
2023-05-08T20:43:27.016Z,32.4
2023-05-08T20:45:28.388Z,31.9
2023-05-08T20:47:29.897Z,29.5
2023-05-08T20:49:31.230Z,31.7
2023-05-08T20:51:32.690Z,36.1
2023-05-08T20:53:34.148Z,34
2023-05-08T20:55:38.843Z,39.9
2023-05-08T20:57:40.232Z,36.6
2023-05-08T20:59:43.253Z,36.6
2023-05-08T21:00:45.543Z,38.5
2023-05-08T21:17:00.355Z,37.1
2023-05-08T21:21:03.107Z,37.9
2023-05-08T21:23:07.883Z,33.7
2023-05-08T21:25:09.271Z,34.9
2023-05-08T21:27:10.710Z,33.4
2023-05-08T21:29:12.147Z,39.2
2023-05-08T21:31:13.594Z,39.9
2023-05-08T21:33:14.968Z,33.7
2023-05-08T21:35:16.592Z,43.7
2023-05-08T21:37:21.111Z,43.7
2023-05-08T21:39:22.572Z,40.3
2023-05-08T21:41:23.968Z,37.4
2023-05-08T21:45:26.878Z,42.8
2023-05-08T21:47:28.375Z,37.2
2023-05-08T21:49:29.659Z,40.6
2023-05-08T21:51:34.419Z,42.3
2023-05-08T21:53:35.811Z,44.2
2023-05-08T21:57:59.773Z,49.2
2023-05-08T22:00:01.220Z,39.6
2023-05-08T22:02:02.682Z,39.1
2023-05-08T22:04:07.369Z,44.2
2023-05-08T22:06:08.764Z,36.6
2023-05-08T22:08:10.215Z,40.6
2023-05-08T22:10:11.615Z,41.2
2023-05-08T22:12:13.054Z,43.5
2023-05-08T22:14:14.517Z,40.6
2023-05-08T22:18:20.615Z,42.3
2023-05-08T22:22:23.461Z,44.2
2023-05-08T22:24:24.891Z,42.1
2023-05-08T22:26:26.312Z,40.8
2023-05-08T22:28:27.706Z,42.6
2023-05-08T22:30:29.142Z,42.1
2023-05-08T22:32:33.951Z,43.2
2023-05-08T22:34:35.347Z,41.1
2023-05-08T22:38:38.168Z,42.4
2023-05-08T22:40:39.606Z,42.7
2023-05-08T22:42:41.021Z,42.5
2023-05-08T22:44:42.486Z,38.2
2023-05-08T22:46:47.298Z,46.4
2023-05-08T22:51:52.422Z,48.3
2023-05-08T22:53:53.823Z,46.1
2023-05-08T22:55:55.251Z,46
2023-05-08T23:00:01.373Z,47.2
2023-05-08T23:02:02.821Z,50.4
2023-05-08T23:04:04.256Z,48
2023-05-08T23:06:05.640Z,51
2023-05-08T23:08:07.091Z,55.3
2023-05-08T23:10:08.489Z,51
2023-05-08T23:12:09.919Z,49
2023-05-08T23:14:14.642Z,46.8
2023-05-08T23:16:16.098Z,53.5
2023-05-08T23:22:20.343Z,49.7
2023-05-08T23:26:23.184Z,43.8
2023-05-08T23:28:27.923Z,49.2
2023-05-08T23:30:29.401Z,47.6
2023-05-08T23:32:30.828Z,46.1
2023-05-08T23:34:32.200Z,44
2023-05-08T23:36:33.632Z,48.3
2023-05-08T23:38:35.051Z,46.4
2023-05-08T23:40:36.510Z,50
2023-05-08T23:42:41.256Z,42.3
2023-05-08T23:44:42.632Z,46.2
2023-05-08T23:46:44.149Z,51.2
2023-05-08T23:47:46.508Z,52.5
2023-05-08T23:51:49.256Z,49.3
2023-05-08T23:53:50.704Z,47.4
2023-05-08T23:55:55.407Z,43.9
2023-05-08T23:57:56.850Z,44.9
2023-05-08T23:59:58.291Z,43.8
